Pontypool, United Kingdom
Current Conditions -  °F | °C
As of 6:20 PM on Friday 28 Nov 2014 (Local Time) from EGFF Reporting Station
Overcast Overcast  
Wind Chill: 52°   Ceiling: 1200
Heat Index: 52°   Visibility: 6mi
Dew Point: 48°   Wind: 18mph
Humidity: 88%   Direction: 70°ENE
Pressure: 29.62"   Gusts: NA
Location:  51.7°N, 3.03°W
Report Text: EGFF 281820Z AUTO 07016KT 9999 OVC012 11/09 Q1003
Loading
Personal Weather Stations






























Interactive Weather Map New forecast layout! Learn more

10-Day Weather Forecast

Advertisements
Track Severe Weather on mobile